»·PEaware :: N9229P KAPA-KLAR

N9229P :: KAPA-KLAR

FLIGHT INFORMATION

Flight Status: Arrived
Operator: Privately registered:
United States
More flights under this callsign
Pilot: James W. (24810)
Aircraft: PIPER PA-24 COMMANCHE
(PA24)
More flights by this aircraft type
Origin: KAPA Centennial
United States
Destination: KLAR Laramie Regl
United States
More flights between these airports :: More routes between these airports
Route: YELLO4 LAR
File this flight plan on PilotEdge
Remarks:
Altitude:
(Current/Filed)
12,000ft
Speed:
(Current/Filed)
170kts
Departed: 15-Sep-20 06:45 PM
Arrived: 15-Sep-20 07:43 PM
Distance/Time
Traveled:
111nm/0:58
Distance/Time
To Go:
Arrived

Flight Plot

Page will automatically refresh every two minutes.

Flight plan parsing failed; only flown route is shown


Map Options




Map Legend


Flown Route
Filed Route
Departure Airport
Arrival Airport
Navaid (VOR, NDB)
Fix

Horizontal Profiles

Position Reports

Time Latitude Longitude Heading Altitude Ground
Speed
15-Sep-20 18:31 39.568783 -104.848472 359 5886ft 0kts
15-Sep-20 18:32 39.568783 -104.848472 359 5886ft 0kts
15-Sep-20 18:33 39.568783 -104.848472 359 5886ft 0kts
15-Sep-20 18:34 39.568783 -104.848472 359 5886ft 0kts
15-Sep-20 18:35 39.568783 -104.848472 359 5886ft 0kts
15-Sep-20 18:36 39.568783 -104.848472 359 5886ft 0kts
15-Sep-20 18:37 39.568783 -104.848472 359 5886ft 0kts
15-Sep-20 18:38 39.568890 -104.849377 358 5886ft 7kts
15-Sep-20 18:39 39.573076 -104.849565 357 5886ft 15kts
15-Sep-20 18:40 39.577783 -104.849771 356 5886ft 18kts
15-Sep-20 18:41 39.582168 -104.849974 358 5886ft 18kts
15-Sep-20 18:42 39.584104 -104.850199 281 5886ft 0kts
15-Sep-20 18:43 39.583825 -104.851469 173 5886ft 7kts
15-Sep-20 18:44 39.568994 -104.850933 177 6143ft 109kts
15-Sep-20 18:45 39.533840 -104.849316 177 7130ft 137kts
15-Sep-20 18:47 39.495076 -104.847480 177 8130ft 140kts
15-Sep-20 18:48 39.487993 -104.815582 37 9150ft 131kts
15-Sep-20 18:49 39.516210 -104.786127 28 10145ft 129kts
15-Sep-20 18:50 39.549366 -104.771478 17 11150ft 124kts
15-Sep-20 18:51 39.582800 -104.757334 16 11986ft 139kts
15-Sep-20 18:52 39.624961 -104.739601 16 11994ft 170kts
15-Sep-20 18:53 39.670973 -104.720298 16 11989ft 175kts
15-Sep-20 18:54 39.717449 -104.700819 16 11981ft 176kts
15-Sep-20 18:55 39.764165 -104.681213 16 11972ft 176kts
15-Sep-20 18:56 39.810919 -104.662749 2 11961ft 175kts
15-Sep-20 18:57 39.857326 -104.679925 342 11957ft 173kts
15-Sep-20 18:58 39.903061 -104.699171 342 11957ft 173kts
15-Sep-20 18:59 39.948730 -104.718487 342 11956ft 173kts
15-Sep-20 19:00 39.994468 -104.737851 342 11954ft 173kts
15-Sep-20 19:01 40.040124 -104.757210 342 11949ft 173kts
15-Sep-20 19:02 40.085774 -104.776595 342 11945ft 173kts
15-Sep-20 19:03 40.131547 -104.796059 342 11944ft 173kts
15-Sep-20 19:03 40.169772 -104.812334 342 11944ft 173kts
15-Sep-20 19:05 40.223180 -104.835106 342 11944ft 173kts
15-Sep-20 19:06 40.268812 -104.854590 342 11945ft 173kts
15-Sep-20 19:06 40.306975 -104.870907 342 11945ft 173kts
15-Sep-20 19:07 40.352778 -104.890516 342 11946ft 173kts
15-Sep-20 19:09 40.406061 -104.913365 342 11947ft 173kts
15-Sep-20 19:09 40.444075 -104.929688 342 11946ft 172kts
15-Sep-20 19:10 40.489729 -104.949319 342 11945ft 172kts
15-Sep-20 19:11 40.535300 -104.968942 342 11945ft 172kts
15-Sep-20 19:12 40.580749 -104.988541 342 11944ft 172kts
15-Sep-20 19:13 40.626175 -105.008158 342 11944ft 172kts
15-Sep-20 19:14 40.671577 -105.027792 342 11950ft 171kts
15-Sep-20 19:15 40.716832 -105.047362 342 11957ft 171kts
15-Sep-20 19:16 40.762692 -105.067529 337 11866ft 173kts
15-Sep-20 19:17 40.777022 -105.121950 278 12388ft 160kts
15-Sep-20 19:18 40.780940 -105.179520 278 12852ft 164kts
15-Sep-20 19:19 40.785302 -105.242455 278 12853ft 177kts
15-Sep-20 19:20 40.789958 -105.308073 278 12853ft 180kts
15-Sep-20 19:21 40.800699 -105.370885 309 12856ft 176kts
15-Sep-20 19:22 40.834364 -105.416972 313 12870ft 175kts
15-Sep-20 19:23 40.865969 -105.466209 315 12887ft 175kts
15-Sep-20 19:24 40.899372 -105.513006 316 12906ft 175kts
15-Sep-20 19:25 40.932913 -105.559717 316 12931ft 175kts
15-Sep-20 19:26 40.966728 -105.606892 316 12963ft 178kts
15-Sep-20 19:27 41.000309 -105.653817 316 12984ft 173kts
15-Sep-20 19:28 41.032956 -105.699490 316 12993ft 166kts
15-Sep-20 19:29 41.063689 -105.742560 315 12992ft 154kts
15-Sep-20 19:30 41.091316 -105.781331 315 12982ft 136kts
15-Sep-20 19:31 41.114502 -105.814035 315 12970ft 115kts
15-Sep-20 19:32 41.135555 -105.843652 316 12964ft 107kts
15-Sep-20 19:33 41.155548 -105.871811 316 12972ft 104kts
15-Sep-20 19:34 41.175432 -105.899734 320 12979ft 103kts
15-Sep-20 19:35 41.196551 -105.881820 56 12611ft 121kts
15-Sep-20 19:36 41.213722 -105.842194 55 11899ft 115kts
15-Sep-20 19:37 41.227940 -105.809022 54 11104ft 101kts
15-Sep-20 19:38 41.243313 -105.772779 55 10301ft 109kts
15-Sep-20 19:39 41.261601 -105.742895 41 9302ft 104kts
15-Sep-20 19:40 41.281945 -105.715469 41 8306ft 105kts
15-Sep-20 19:41 41.302140 -105.688086 43 7349ft 94kts
15-Sep-20 19:42 41.312624 -105.674056 47 7272ft 32kts
15-Sep-20 19:43 41.317288 -105.669897 355 7271ft 21kts
15-Sep-20 19:44 41.319629 -105.669601 88 7269ft 0kts

Navigation Log

Ident Type
Flight plan parsing failed, navigation log unavailable